Time,TemperatureF,DewpointF,PressureIn,WindDirection,WindDirectionDegrees,WindSpeedMPH,WindSpeedGustMPH,Humidity,HourlyPrecipIn,Conditions,Clouds,dailyrainin,SolarRadiationWatts/m^2,SoftwareType,DateUTC
2013-01-21 00:03:00,14.9,12.0,30.10,North,-999,0.0,0.0,88,0.00,,,0.00,0.00,VWS V14.01,2013-01-21 07:03:00,
2013-01-21 00:08:00,15.0,12.4,30.10,North,-999,0.0,0.0,89,0.00,,,0.00,0.00,VWS V14.01,2013-01-21 07:08:00,
2013-01-21 00:13:00,15.2,12.8,30.10,North,-999,0.0,0.0,90,0.00,,,0.00,0.00,VWS V14.01,2013-01-21 07:13:00,
2013-01-21 00:18:00,15.1,12.4,30.09,North,-999,0.0,0.0,89,0.00,,,0.00,0.00,VWS V14.01,2013-01-21 07:18:00,
2013-01-21 00:23:00,15.1,12.4,30.09,North,-999,0.0,3.0,89,0.00,,,0.00,0.00,VWS V14.01,2013-01-21 07:23:00,
2013-01-21 00:28:00,15.0,12.6,30.08,North,-999,0.0,3.0,90,0.00,,,0.00,0.00,VWS V14.01,2013-01-21 07:28:00,
2013-01-21 00:33:00,15.0,12.6,30.09,North,-999,5.0,7.0,90,0.00,,,0.00,0.00,VWS V14.01,2013-01-21 07:33:00,
2013-01-21 00:38:00,14.7,12.1,30.08,North,-999,0.0,7.0,89,0.00,,,0.00,0.00,VWS V14.01,2013-01-21 07:38:00,
2013-01-21 00:43:00,14.8,12.4,30.08,North,-999,0.0,0.0,90,0.00,,,0.00,0.00,VWS V14.01,2013-01-21 07:43:00,
2013-01-21 00:48:00,14.6,11.9,30.08,North,-999,0.0,0.0,89,0.00,,,0.00,0.00,VWS V14.01,2013-01-21 07:48:00,
2013-01-21 00:53:00,14.5,12.1,30.08,North,-999,1.0,8.0,90,0.00,,,0.00,0.00,VWS V14.01,2013-01-21 07:53:00,
2013-01-21 00:58:00,14.6,12.2,30.08,North,-999,0.0,8.0,90,0.00,,,0.00,0.00,VWS V14.01,2013-01-21 07:58:00,
2013-01-21 01:03:00,14.6,12.2,30.07,North,-999,0.0,7.0,90,0.00,,,0.00,0.00,VWS V14.01,2013-01-21 08:03:00,
2013-01-21 01:08:00,14.6,12.2,30.08,North,-999,0.0,7.0,90,0.00,,,0.00,0.00,VWS V14.01,2013-01-21 08:08:00,
2013-01-21 01:13:00,14.8,12.4,30.07,North,-999,0.0,0.0,90,0.00,,,0.00,0.00,VWS V14.01,2013-01-21 08:13:00,
2013-01-21 01:18:00,15.0,12.9,30.07,North,-999,0.0,0.0,91,0.00,,,0.00,0.00,VWS V14.01,2013-01-21 08:18:00,
2013-01-21 01:23:00,15.2,13.1,30.07,North,-999,0.0,0.0,91,0.00,,,0.00,0.00,VWS V14.01,2013-01-21 08:23:00,
2013-01-21 01:28:00,15.3,12.9,30.07,North,-999,0.0,0.0,90,0.00,,,0.00,0.00,VWS V14.01,2013-01-21 08:28:00,
2013-01-21 01:33:00,14.9,12.2,30.06,North,-999,0.0,0.0,89,0.00,,,0.00,0.00,VWS V14.01,2013-01-21 08:33:00,
2013-01-21 01:38:00,14.7,12.1,30.06,North,-999,0.0,0.0,89,0.00,,,0.00,0.00,VWS V14.01,2013-01-21 08:38:00,
2013-01-21 01:43:00,14.6,11.9,30.06,North,-999,0.0,0.0,89,0.00,,,0.00,0.00,VWS V14.01,2013-01-21 08:43:00,
2013-01-21 01:48:00,14.7,12.3,30.06,North,-999,0.0,6.0,90,0.00,,,0.00,0.00,VWS V14.01,2013-01-21 08:48:00,
2013-01-21 01:53:00,14.7,12.1,30.06,North,-999,0.0,0.0,89,0.00,,,0.00,0.00,VWS V14.01,2013-01-21 08:53:00,
2013-01-21 01:58:00,14.7,12.3,30.06,North,-999,0.0,9.0,90,0.00,,,0.00,0.00,VWS V14.01,2013-01-21 08:58:00,
2013-01-21 02:03:00,14.5,12.1,30.07,North,-999,6.0,9.0,90,0.00,,,0.00,0.00,VWS V14.01,2013-01-21 09:03:00,
2013-01-21 02:08:00,14.3,11.9,30.06,North,-999,0.0,9.0,90,0.00,,,0.00,0.00,VWS V14.01,2013-01-21 09:08:00,
2013-01-21 02:13:00,14.1,11.7,30.06,North,-999,0.0,0.0,90,0.00,,,0.00,0.00,VWS V14.01,2013-01-21 09:13:00,
2013-01-21 02:18:00,14.0,11.6,30.06,North,-999,0.0,0.0,90,0.00,,,0.00,0.00,VWS V14.01,2013-01-21 09:18:00,
2013-01-21 02:23:00,14.2,12.1,30.06,North,-999,2.0,4.0,91,0.00,,,0.00,0.00,VWS V14.01,2013-01-21 09:23:00,
2013-01-21 02:28:00,14.3,12.2,30.06,North,-999,0.0,4.0,91,0.00,,,0.00,0.00,VWS V14.01,2013-01-21 09:28:00,
2013-01-21 02:33:00,14.4,12.3,30.06,North,-999,0.0,5.0,91,0.00,,,0.00,0.00,VWS V14.01,2013-01-21 09:33:00,
2013-01-21 02:38:00,14.5,12.4,30.06,North,-999,5.0,7.0,91,0.00,,,0.00,0.00,VWS V14.01,2013-01-21 09:38:00,
2013-01-21 02:43:00,14.3,12.2,30.06,North,-999,5.0,5.0,91,0.00,,,0.00,0.00,VWS V14.01,2013-01-21 09:43:00,
2013-01-21 02:48:00,14.1,11.7,30.06,North,-999,3.0,6.0,90,0.00,,,0.00,0.00,VWS V14.01,2013-01-21 09:48:00,
2013-01-21 02:53:00,13.7,11.3,30.07,North,-999,1.0,8.0,90,0.00,,,0.00,0.00,VWS V14.01,2013-01-21 09:53:00,
2013-01-21 02:58:00,13.6,11.2,30.06,North,-999,5.0,8.0,90,0.00,,,0.00,0.00,VWS V14.01,2013-01-21 09:58:00,
2013-01-21 03:03:00,14.0,11.9,30.05,North,-999,0.0,4.0,91,0.00,,,0.00,0.00,VWS V14.01,2013-01-21 10:03:00,
2013-01-21 03:08:00,14.2,12.1,30.06,North,-999,0.0,7.0,91,0.00,,,0.00,0.00,VWS V14.01,2013-01-21 10:08:00,
2013-01-21 03:13:00,14.2,12.1,30.06,North,-999,3.0,4.0,91,0.00,,,0.00,0.00,VWS V14.01,2013-01-21 10:13:00,
2013-01-21 03:18:00,14.2,12.1,30.07,North,-999,5.0,5.0,91,0.00,,,0.00,0.00,VWS V14.01,2013-01-21 10:18:00,
2013-01-21 03:23:00,14.1,12.0,30.06,North,-999,0.0,5.0,91,0.00,,,0.00,0.00,VWS V14.01,2013-01-21 10:23:00,
2013-01-21 03:28:00,14.0,11.9,30.06,North,-999,0.0,9.0,91,0.00,,,0.00,0.00,VWS V14.01,2013-01-21 10:28:00,
2013-01-21 03:33:00,14.1,12.0,30.06,North,-999,1.0,5.0,91,0.00,,,0.00,0.00,VWS V14.01,2013-01-21 10:33:00,
2013-01-21 03:38:00,14.0,11.9,30.06,North,-999,0.0,5.0,91,0.00,,,0.00,0.00,VWS V14.01,2013-01-21 10:38:00,
2013-01-21 03:43:00,13.9,11.8,30.05,North,-999,0.0,0.0,91,0.00,,,0.00,0.00,VWS V14.01,2013-01-21 10:43:00,
2013-01-21 03:48:00,13.7,11.3,30.05,North,-999,0.0,2.0,90,0.00,,,0.00,0.00,VWS V14.01,2013-01-21 10:48:00,
2013-01-21 03:53:00,13.9,11.8,30.05,North,-999,0.0,0.0,91,0.00,,,0.00,0.00,VWS V14.01,2013-01-21 10:53:00,
2013-01-21 03:58:00,14.0,11.9,30.05,North,-999,0.0,0.0,91,0.00,,,0.00,0.00,VWS V14.01,2013-01-21 10:58:00,
2013-01-21 04:03:00,13.9,11.8,30.04,North,-999,0.0,0.0,91,0.00,,,0.00,0.00,VWS V14.01,2013-01-21 11:03:00,
2013-01-21 04:08:00,14.0,11.9,30.05,North,-999,0.0,0.0,91,0.00,,,0.00,0.00,VWS V14.01,2013-01-21 11:08:00,
2013-01-21 04:13:00,14.0,11.9,30.04,North,-999,0.0,0.0,91,0.00,,,0.00,0.00,VWS V14.01,2013-01-21 11:13:00,
2013-01-21 04:18:00,13.9,11.8,30.05,North,-999,0.0,3.0,91,0.00,,,0.00,0.00,VWS V14.01,2013-01-21 11:18:00,
2013-01-21 04:23:00,13.9,11.8,30.05,North,-999,0.0,0.0,91,0.00,,,0.00,0.00,VWS V14.01,2013-01-21 11:23:00,
2013-01-21 04:28:00,13.9,11.8,30.04,North,-999,0.0,0.0,91,0.00,,,0.00,0.00,VWS V14.01,2013-01-21 11:28:00,
2013-01-21 04:33:00,13.9,11.8,30.04,North,-999,0.0,0.0,91,0.00,,,0.00,0.00,VWS V14.01,2013-01-21 11:33:00,
2013-01-21 04:38:00,13.9,11.8,30.04,North,-999,3.0,3.0,91,0.00,,,0.00,0.00,VWS V14.01,2013-01-21 11:38:00,
2013-01-21 04:43:00,13.8,11.7,30.04,North,-999,0.0,4.0,91,0.00,,,0.00,0.00,VWS V14.01,2013-01-21 11:43:00,
2013-01-21 04:48:00,13.6,11.5,30.05,North,-999,4.0,4.0,91,0.00,,,0.00,0.00,VWS V14.01,2013-01-21 11:48:00,
2013-01-21 04:53:00,13.4,11.3,30.04,North,-999,0.0,4.0,91,0.00,,,0.00,0.00,VWS V14.01,2013-01-21 11:53:00,
2013-01-21 04:58:00,13.3,11.2,30.05,North,-999,0.0,4.0,91,0.00,,,0.00,0.00,VWS V14.01,2013-01-21 11:58:00,
2013-01-21 05:03:00,13.2,11.1,30.05,North,-999,0.0,0.0,91,0.00,,,0.00,0.00,VWS V14.01,2013-01-21 12:03:00,
2013-01-21 05:08:00,12.9,10.5,30.04,North,-999,0.0,0.0,90,0.00,,,0.00,0.00,VWS V14.01,2013-01-21 12:08:00,
2013-01-21 05:13:00,12.8,10.7,30.05,North,-999,0.0,5.0,91,0.00,,,0.00,0.00,VWS V14.01,2013-01-21 12:13:00,
2013-01-21 05:18:00,12.6,10.2,30.05,North,-999,0.0,5.0,90,0.00,,,0.00,0.00,VWS V14.01,2013-01-21 12:18:00,
2013-01-21 05:23:00,12.5,10.1,30.04,North,-999,0.0,0.0,90,0.00,,,0.00,0.00,VWS V14.01,2013-01-21 12:23:00,
2013-01-21 05:28:00,12.5,10.1,30.04,North,-999,0.0,0.0,90,0.00,,,0.00,0.00,VWS V14.01,2013-01-21 12:28:00,
2013-01-21 05:33:00,12.6,10.5,30.04,North,-999,0.0,0.0,91,0.00,,,0.00,0.00,VWS V14.01,2013-01-21 12:33:00,
2013-01-21 05:37:00,12.6,10.5,30.04,North,-999,0.0,0.0,91,0.00,,,0.00,0.00,VWS V14.01,2013-01-21 12:37:00,
2013-01-21 05:42:00,12.3,9.9,30.03,North,-999,0.0,0.0,90,0.00,,,0.00,0.00,VWS V14.01,2013-01-21 12:42:00,
2013-01-21 05:48:00,12.2,9.8,30.04,North,-999,0.0,0.0,90,0.00,,,0.00,0.00,VWS V14.01,2013-01-21 12:48:00,
2013-01-21 05:52:00,12.3,9.9,30.04,North,-999,0.0,0.0,90,0.00,,,0.00,0.00,VWS V14.01,2013-01-21 12:52:00,
2013-01-21 05:57:00,12.5,10.4,30.04,North,-999,0.0,0.0,91,0.00,,,0.00,0.00,VWS V14.01,2013-01-21 12:57:00,
2013-01-21 06:02:00,12.5,10.1,30.04,North,-999,0.0,0.0,90,0.00,,,0.00,0.00,VWS V14.01,2013-01-21 13:02:00,
2013-01-21 06:07:00,12.7,10.6,30.04,North,-999,0.0,0.0,91,0.00,,,0.00,0.00,VWS V14.01,2013-01-21 13:07:00,
2013-01-21 06:12:00,12.8,10.7,30.04,North,-999,0.0,0.0,91,0.00,,,0.00,0.00,VWS V14.01,2013-01-21 13:12:00,
2013-01-21 06:17:00,12.9,10.5,30.03,North,-999,0.0,0.0,90,0.00,,,0.00,0.00,VWS V14.01,2013-01-21 13:17:00,
2013-01-21 06:22:00,12.9,10.8,30.03,North,-999,0.0,0.0,91,0.00,,,0.00,0.00,VWS V14.01,2013-01-21 13:22:00,
2013-01-21 06:27:00,12.7,10.3,30.03,North,-999,0.0,0.0,90,0.00,,,0.00,0.00,VWS V14.01,2013-01-21 13:27:00,
2013-01-21 06:32:00,12.5,10.1,30.03,North,-999,0.0,0.0,90,0.00,,,0.00,0.00,VWS V14.01,2013-01-21 13:32:00,
2013-01-21 06:37:00,12.5,10.1,30.03,North,-999,0.0,0.0,90,0.00,,,0.00,0.00,VWS V14.01,2013-01-21 13:37:00,
2013-01-21 06:42:00,12.5,10.1,30.03,North,-999,0.0,0.0,90,0.00,,,0.00,0.00,VWS V14.01,2013-01-21 13:42:00,
2013-01-21 06:47:00,12.3,9.9,30.03,North,-999,0.0,0.0,90,0.00,,,0.00,0.00,VWS V14.01,2013-01-21 13:47:00,
2013-01-21 06:52:00,12.3,9.9,30.03,North,-999,0.0,0.0,90,0.00,,,0.00,0.00,VWS V14.01,2013-01-21 13:52:00,
2013-01-21 06:57:00,12.2,9.8,30.03,North,-999,0.0,0.0,90,0.00,,,0.00,0.00,VWS V14.01,2013-01-21 13:57:00,
2013-01-21 07:02:00,11.9,9.5,30.03,North,-999,0.0,0.0,90,0.00,,,0.00,0.00,VWS V14.01,2013-01-21 14:02:00,
2013-01-21 07:07:00,12.0,9.6,30.03,North,-999,0.0,0.0,90,0.00,,,0.00,0.00,VWS V14.01,2013-01-21 14:07:00,
2013-01-21 07:12:00,12.3,10.2,30.03,North,-999,0.0,0.0,91,0.00,,,0.00,0.00,VWS V14.01,2013-01-21 14:12:00,
2013-01-21 07:17:00,12.7,10.6,30.03,North,-999,0.0,0.0,91,0.00,,,0.00,0.00,VWS V14.01,2013-01-21 14:17:00,
2013-01-21 07:22:00,12.9,10.8,30.03,North,-999,0.0,0.0,91,0.00,,,0.00,0.00,VWS V14.01,2013-01-21 14:22:00,
2013-01-21 07:27:00,13.1,11.0,30.03,North,-999,0.0,0.0,91,0.00,,,0.00,0.00,VWS V14.01,2013-01-21 14:27:00,
2013-01-21 07:32:00,13.5,11.6,30.03,North,-999,0.0,0.0,92,0.00,,,0.00,0.00,VWS V14.01,2013-01-21 14:32:00,
2013-01-21 07:37:00,13.6,11.5,30.02,North,-999,0.0,0.0,91,0.00,,,0.00,0.00,VWS V14.01,2013-01-21 14:37:00,
2013-01-21 07:42:00,13.6,11.5,30.02,North,-999,0.0,0.0,91,0.00,,,0.00,0.00,VWS V14.01,2013-01-21 14:42:00,
2013-01-21 07:47:00,13.6,11.5,30.02,North,-999,0.0,0.0,91,0.00,,,0.00,0.00,VWS V14.01,2013-01-21 14:47:00,
2013-01-21 07:52:00,13.7,11.3,30.02,North,-999,0.0,0.0,90,0.00,,,0.00,7.00,VWS V14.01,2013-01-21 14:52:00,
2013-01-21 07:57:00,13.7,11.3,30.02,North,-999,0.0,0.0,90,0.00,,,0.00,11.00,VWS V14.01,2013-01-21 14:57:00,
2013-01-21 08:02:00,13.6,11.2,30.02,North,-999,0.0,0.0,90,0.00,,,0.00,12.00,VWS V14.01,2013-01-21 15:02:00,
2013-01-21 08:07:00,13.7,11.3,30.02,North,-999,0.0,0.0,90,0.00,,,0.00,16.00,VWS V14.01,2013-01-21 15:07:00,
2013-01-21 08:12:00,13.8,11.4,30.02,North,-999,0.0,0.0,90,0.00,,,0.00,19.00,VWS V14.01,2013-01-21 15:12:00,
2013-01-21 08:17:00,14.1,12.0,30.02,North,-999,0.0,5.0,91,0.00,,,0.00,26.00,VWS V14.01,2013-01-21 15:17:00,
2013-01-21 08:22:00,14.3,12.2,30.02,North,-999,0.0,0.0,91,0.00,,,0.00,28.00,VWS V14.01,2013-01-21 15:22:00,
2013-01-21 08:27:00,14.4,12.3,30.02,North,-999,0.0,0.0,91,0.00,,,0.00,33.00,VWS V14.01,2013-01-21 15:27:00,
2013-01-21 08:32:00,14.9,12.8,30.02,North,-999,0.0,0.0,91,0.00,,,0.00,53.00,VWS V14.01,2013-01-21 15:32:00,
2013-01-21 08:37:00,15.5,13.4,30.02,North,-999,0.0,0.0,91,0.00,,,0.00,62.00,VWS V14.01,2013-01-21 15:37:00,
2013-01-21 08:42:00,16.1,13.9,30.02,North,-999,2.0,6.0,91,0.00,,,0.00,76.00,VWS V14.01,2013-01-21 15:42:00,
2013-01-21 08:47:00,16.5,14.3,30.03,North,-999,0.0,6.0,91,0.00,,,0.00,86.00,VWS V14.01,2013-01-21 15:47:00,
2013-01-21 08:52:00,16.8,14.6,30.02,North,-999,2.0,4.0,91,0.00,,,0.00,90.00,VWS V14.01,2013-01-21 15:52:00,
2013-01-21 08:57:00,17.1,14.9,30.03,North,-999,0.0,4.0,91,0.00,,,0.00,111.00,VWS V14.01,2013-01-21 15:57:00,
2013-01-21 09:02:00,17.3,14.9,30.03,North,-999,2.0,4.0,90,0.00,,,0.00,139.00,VWS V14.01,2013-01-21 16:02:00,
2013-01-21 09:07:00,17.4,15.0,30.03,North,-999,3.0,6.0,90,0.00,,,0.00,155.00,VWS V14.01,2013-01-21 16:07:00,
2013-01-21 09:12:00,17.3,14.9,30.03,North,-999,4.0,6.0,90,0.00,,,0.00,107.00,VWS V14.01,2013-01-21 16:12:00,
2013-01-21 09:17:00,17.3,14.9,30.03,North,-999,3.0,6.0,90,0.00,,,0.00,178.00,VWS V14.01,2013-01-21 16:17:00,
2013-01-21 09:22:00,17.4,15.0,30.03,North,-999,0.0,6.0,90,0.00,,,0.00,144.00,VWS V14.01,2013-01-21 16:22:00,
2013-01-21 09:27:00,17.6,15.2,30.03,North,-999,0.0,6.0,90,0.00,,,0.00,114.00,VWS V14.01,2013-01-21 16:27:00,
2013-01-21 09:32:00,17.7,15.3,30.04,North,-999,0.0,3.0,90,0.00,,,0.00,139.00,VWS V14.01,2013-01-21 16:32:00,
2013-01-21 09:37:00,17.7,15.0,30.03,North,-999,0.0,3.0,89,0.00,,,0.00,72.00,VWS V14.01,2013-01-21 16:37:00,
2013-01-21 09:42:00,17.9,15.5,30.04,North,-999,0.0,0.0,90,0.00,,,0.00,218.00,VWS V14.01,2013-01-21 16:42:00,
2013-01-21 09:47:00,18.2,15.5,30.04,North,-999,0.0,0.0,89,0.00,,,0.00,206.00,VWS V14.01,2013-01-21 16:47:00,
2013-01-21 09:52:00,18.5,15.8,30.03,North,-999,0.0,3.0,89,0.00,,,0.00,229.00,VWS V14.01,2013-01-21 16:52:00,
2013-01-21 09:57:00,18.9,15.9,30.04,North,-999,0.0,3.0,88,0.00,,,0.00,241.00,VWS V14.01,2013-01-21 16:57:00,
2013-01-21 10:02:00,19.2,16.2,30.03,North,-999,0.0,0.0,88,0.00,,,0.00,255.00,VWS V14.01,2013-01-21 17:02:00,
2013-01-21 10:07:00,19.5,16.3,30.03,North,-999,0.0,0.0,87,0.00,,,0.00,265.00,VWS V14.01,2013-01-21 17:07:00,
2013-01-21 10:12:00,19.9,16.4,30.03,North,-999,2.0,4.0,86,0.00,,,0.00,276.00,VWS V14.01,2013-01-21 17:12:00,
2013-01-21 10:17:00,20.0,16.2,30.04,North,-999,3.0,5.0,85,0.00,,,0.00,283.00,VWS V14.01,2013-01-21 17:17:00,
2013-01-21 10:22:00,20.1,16.0,30.04,North,-999,2.0,4.0,84,0.00,,,0.00,292.00,VWS V14.01,2013-01-21 17:22:00,
2013-01-21 10:27:00,20.7,16.9,30.03,North,-999,0.0,4.0,85,0.00,,,0.00,301.00,VWS V14.01,2013-01-21 17:27:00,
2013-01-21 10:32:00,21.0,16.4,30.03,North,-999,1.0,3.0,82,0.00,,,0.00,308.00,VWS V14.01,2013-01-21 17:32:00,
2013-01-21 10:37:00,21.0,16.4,30.04,North,-999,4.0,7.0,82,0.00,,,0.00,313.00,VWS V14.01,2013-01-21 17:37:00,
2013-01-21 10:42:00,21.0,16.1,30.03,North,-999,3.0,5.0,81,0.00,,,0.00,320.00,VWS V14.01,2013-01-21 17:42:00,
2013-01-21 10:47:00,21.3,16.4,30.03,North,-999,0.0,5.0,81,0.00,,,0.00,327.00,VWS V14.01,2013-01-21 17:47:00,
2013-01-21 10:52:00,21.3,16.4,30.03,North,-999,2.0,4.0,81,0.00,,,0.00,334.00,VWS V14.01,2013-01-21 17:52:00,
2013-01-21 10:57:00,21.7,16.8,30.03,North,-999,0.0,4.0,81,0.00,,,0.00,339.00,VWS V14.01,2013-01-21 17:57:00,
2013-01-21 11:02:00,21.8,16.6,30.03,North,-999,1.0,4.0,80,0.00,,,0.00,345.00,VWS V14.01,2013-01-21 18:02:00,
2013-01-21 11:07:00,21.6,16.4,30.02,North,-999,2.0,4.0,80,0.00,,,0.00,353.00,VWS V14.01,2013-01-21 18:07:00,
2013-01-21 11:12:00,21.8,16.9,30.02,North,-999,0.0,5.0,81,0.00,,,0.00,360.00,VWS V14.01,2013-01-21 18:12:00,
2013-01-21 11:17:00,22.2,17.3,30.02,North,-999,0.0,5.0,81,0.00,,,0.00,366.00,VWS V14.01,2013-01-21 18:17:00,
2013-01-21 11:22:00,22.3,17.1,30.01,North,-999,2.0,4.0,80,0.00,,,0.00,376.00,VWS V14.01,2013-01-21 18:22:00,
2013-01-21 11:27:00,22.1,16.9,30.01,North,-999,4.0,4.0,80,0.00,,,0.00,383.00,VWS V14.01,2013-01-21 18:27:00,
2013-01-21 11:32:00,21.9,17.0,30.01,North,-999,2.0,5.0,81,0.00,,,0.00,394.00,VWS V14.01,2013-01-21 18:32:00,
2013-01-21 11:37:00,22.0,17.1,30.00,North,-999,3.0,5.0,81,0.00,,,0.00,408.00,VWS V14.01,2013-01-21 18:37:00,
2013-01-21 11:42:00,22.1,17.2,30.00,North,-999,3.0,5.0,81,0.00,,,0.00,413.00,VWS V14.01,2013-01-21 18:42:00,
2013-01-21 11:47:00,22.1,17.2,29.99,North,-999,0.0,5.0,81,0.00,,,0.00,424.00,VWS V14.01,2013-01-21 18:47:00,
2013-01-21 11:52:00,22.1,17.2,30.00,North,-999,0.0,0.0,81,0.00,,,0.00,427.00,VWS V14.01,2013-01-21 18:52:00,
2013-01-21 11:57:00,22.4,17.2,29.99,North,-999,2.0,4.0,80,0.00,,,0.00,434.00,VWS V14.01,2013-01-21 18:57:00,
2013-01-21 12:02:00,22.6,17.4,29.98,North,-999,0.0,4.0,80,0.00,,,0.00,438.00,VWS V14.01,2013-01-21 19:02:00,
2013-01-21 12:07:00,22.8,17.3,29.99,North,-999,4.0,5.0,79,0.00,,,0.00,441.00,VWS V14.01,2013-01-21 19:07:00,
2013-01-21 12:12:00,22.9,17.4,29.99,North,-999,4.0,6.0,79,0.00,,,0.00,439.00,VWS V14.01,2013-01-21 19:12:00,
2013-01-21 12:17:00,22.9,17.1,29.99,North,-999,7.0,8.0,78,0.00,,,0.00,441.00,VWS V14.01,2013-01-21 19:17:00,
2013-01-21 12:22:00,23.3,17.5,29.98,North,-999,5.0,12.0,78,0.00,,,0.00,445.00,VWS V14.01,2013-01-21 19:22:00,
2013-01-21 12:27:00,23.3,17.5,29.98,North,-999,4.0,12.0,78,0.00,,,0.00,445.00,VWS V14.01,2013-01-21 19:27:00,
2013-01-21 12:32:00,23.4,17.6,29.98,North,-999,1.0,6.0,78,0.00,,,0.00,443.00,VWS V14.01,2013-01-21 19:32:00,
2013-01-21 12:37:00,23.6,17.8,29.98,North,-999,4.0,6.0,78,0.00,,,0.00,445.00,VWS V14.01,2013-01-21 19:37:00,
2013-01-21 12:42:00,23.5,17.4,29.98,North,-999,0.0,6.0,77,0.00,,,0.00,446.00,VWS V14.01,2013-01-21 19:42:00,
2013-01-21 12:47:00,23.6,17.8,29.98,North,-999,3.0,8.0,78,0.00,,,0.00,441.00,VWS V14.01,2013-01-21 19:47:00,
2013-01-21 12:52:00,24.1,18.0,29.98,North,-999,0.0,4.0,77,0.00,,,0.00,399.00,VWS V14.01,2013-01-21 19:52:00,
2013-01-21 12:57:00,24.2,18.0,29.97,North,-999,4.0,6.0,77,0.00,,,0.00,418.00,VWS V14.01,2013-01-21 19:57:00,
2013-01-21 13:02:00,24.3,18.1,29.98,North,-999,4.0,5.0,77,0.00,,,0.00,418.00,VWS V14.01,2013-01-21 20:02:00,
2013-01-21 13:06:00,24.5,18.3,29.98,North,-999,0.0,7.0,77,0.00,,,0.00,432.00,VWS V14.01,2013-01-21 20:06:00,
2013-01-21 13:11:00,24.5,18.0,29.98,North,-999,4.0,7.0,76,0.00,,,0.00,431.00,VWS V14.01,2013-01-21 20:11:00,
2013-01-21 13:16:00,24.4,18.2,29.98,North,-999,2.0,7.0,77,0.00,,,0.00,422.00,VWS V14.01,2013-01-21 20:16:00,
2013-01-21 13:21:00,24.8,18.6,29.98,North,-999,2.0,4.0,77,0.00,,,0.00,454.00,VWS V14.01,2013-01-21 20:21:00,
2013-01-21 13:26:00,24.8,18.3,29.98,North,-999,1.0,5.0,76,0.00,,,0.00,443.00,VWS V14.01,2013-01-21 20:26:00,
2013-01-21 13:31:00,24.8,18.3,29.98,North,-999,2.0,7.0,76,0.00,,,0.00,452.00,VWS V14.01,2013-01-21 20:31:00,
2013-01-21 13:36:00,24.9,18.4,29.97,North,-999,2.0,7.0,76,0.00,,,0.00,436.00,VWS V14.01,2013-01-21 20:36:00,
2013-01-21 13:41:00,25.3,19.1,29.97,North,-999,0.0,0.0,77,0.00,,,0.00,410.00,VWS V14.01,2013-01-21 20:41:00,
2013-01-21 13:46:00,25.6,18.8,29.97,North,-999,0.0,5.0,75,0.00,,,0.00,413.00,VWS V14.01,2013-01-21 20:46:00,
2013-01-21 13:51:00,25.6,19.1,29.97,North,-999,5.0,6.0,76,0.00,,,0.00,399.00,VWS V14.01,2013-01-21 20:51:00,
2013-01-21 13:56:00,25.7,18.9,29.96,North,-999,1.0,6.0,75,0.00,,,0.00,371.00,VWS V14.01,2013-01-21 20:56:00,
2013-01-21 14:01:00,25.7,18.9,29.96,North,-999,5.0,5.0,75,0.00,,,0.00,387.00,VWS V14.01,2013-01-21 21:01:00,
2013-01-21 14:06:00,25.8,19.0,29.96,North,-999,1.0,5.0,75,0.00,,,0.00,383.00,VWS V14.01,2013-01-21 21:06:00,
2013-01-21 14:11:00,26.0,19.2,29.96,North,-999,3.0,4.0,75,0.00,,,0.00,376.00,VWS V14.01,2013-01-21 21:11:00,
2013-01-21 14:16:00,26.2,19.4,29.95,North,-999,3.0,5.0,75,0.00,,,0.00,348.00,VWS V14.01,2013-01-21 21:16:00,
2013-01-21 14:21:00,26.4,19.2,29.95,North,-999,2.0,4.0,74,0.00,,,0.00,352.00,VWS V14.01,2013-01-21 21:21:00,
2013-01-21 14:26:00,26.6,19.4,29.94,North,-999,1.0,5.0,74,0.00,,,0.00,350.00,VWS V14.01,2013-01-21 21:26:00,
2013-01-21 14:31:00,26.7,19.5,29.94,North,-999,3.0,5.0,74,0.00,,,0.00,339.00,VWS V14.01,2013-01-21 21:31:00,
2013-01-21 14:36:00,27.1,19.9,29.95,North,-999,1.0,5.0,74,0.00,,,0.00,330.00,VWS V14.01,2013-01-21 21:36:00,
2013-01-21 14:41:00,27.3,19.8,29.95,North,-999,3.0,4.0,73,0.00,,,0.00,323.00,VWS V14.01,2013-01-21 21:41:00,
2013-01-21 14:46:00,27.5,20.0,29.94,North,-999,3.0,7.0,73,0.00,,,0.00,320.00,VWS V14.01,2013-01-21 21:46:00,
2013-01-21 14:51:00,27.8,20.3,29.93,North,-999,4.0,5.0,73,0.00,,,0.00,329.00,VWS V14.01,2013-01-21 21:51:00,
2013-01-21 14:56:00,28.4,20.5,29.93,North,-999,3.0,5.0,72,0.00,,,0.00,323.00,VWS V14.01,2013-01-21 21:56:00,
2013-01-21 15:01:00,28.7,20.5,29.93,North,-999,5.0,6.0,71,0.00,,,0.00,304.00,VWS V14.01,2013-01-21 22:01:00,
2013-01-21 15:06:00,28.6,20.4,29.93,North,-999,6.0,6.0,71,0.00,,,0.00,93.00,VWS V14.01,2013-01-21 22:06:00,
2013-01-21 15:11:00,28.4,20.2,29.93,North,-999,2.0,5.0,71,0.00,,,0.00,100.00,VWS V14.01,2013-01-21 22:11:00,
2013-01-21 15:16:00,28.1,20.2,29.93,North,-999,2.0,6.0,72,0.00,,,0.00,146.00,VWS V14.01,2013-01-21 22:16:00,
2013-01-21 15:21:00,28.1,20.2,29.91,North,-999,2.0,6.0,72,0.00,,,0.00,316.00,VWS V14.01,2013-01-21 22:21:00,
2013-01-21 15:26:00,28.1,20.6,29.93,North,-999,2.0,12.0,73,0.00,,,0.00,267.00,VWS V14.01,2013-01-21 22:26:00,
2013-01-21 15:31:00,28.0,20.5,29.93,North,-999,3.0,6.0,73,0.00,,,0.00,144.00,VWS V14.01,2013-01-21 22:31:00,
2013-01-21 15:36:00,27.8,20.3,29.92,North,-999,3.0,7.0,73,0.00,,,0.00,213.00,VWS V14.01,2013-01-21 22:36:00,
2013-01-21 15:41:00,27.9,20.4,29.92,North,-999,6.0,6.0,73,0.00,,,0.00,197.00,VWS V14.01,2013-01-21 22:41:00,
2013-01-21 15:46:00,28.0,20.5,29.92,North,-999,9.0,9.0,73,0.00,,,0.00,192.00,VWS V14.01,2013-01-21 22:46:00,
2013-01-21 15:51:00,28.0,20.5,29.92,North,-999,5.0,6.0,73,0.00,,,0.00,165.00,VWS V14.01,2013-01-21 22:51:00,
2013-01-21 15:56:00,28.0,20.5,29.92,North,-999,4.0,10.0,73,0.00,,,0.00,139.00,VWS V14.01,2013-01-21 22:56:00,
2013-01-21 16:01:00,27.9,20.4,29.93,North,-999,4.0,7.0,73,0.00,,,0.00,88.00,VWS V14.01,2013-01-21 23:01:00,
2013-01-21 16:06:00,27.6,20.1,29.93,North,-999,6.0,12.0,73,0.00,,,0.00,67.00,VWS V14.01,2013-01-21 23:06:00,
2013-01-21 16:11:00,27.5,20.0,29.92,North,-999,2.0,7.0,73,0.00,,,0.00,60.00,VWS V14.01,2013-01-21 23:11:00,
2013-01-21 16:16:00,27.5,20.0,29.93,North,-999,8.0,9.0,73,0.00,,,0.00,56.00,VWS V14.01,2013-01-21 23:16:00,
2013-01-21 16:21:00,27.4,19.9,29.93,North,-999,0.0,7.0,73,0.00,,,0.00,46.00,VWS V14.01,2013-01-21 23:21:00,
2013-01-21 16:26:00,27.3,19.8,29.92,North,-999,5.0,7.0,73,0.00,,,0.00,46.00,VWS V14.01,2013-01-21 23:26:00,
2013-01-21 16:31:00,27.3,19.8,29.92,North,-999,1.0,6.0,73,0.00,,,0.00,39.00,VWS V14.01,2013-01-21 23:31:00,
2013-01-21 16:36:00,27.5,20.0,29.92,North,-999,5.0,7.0,73,0.00,,,0.00,37.00,VWS V14.01,2013-01-21 23:36:00,
2013-01-21 16:41:00,27.6,20.1,29.92,North,-999,4.0,6.0,73,0.00,,,0.00,26.00,VWS V14.01,2013-01-21 23:41:00,
2013-01-21 16:46:00,27.4,19.9,29.92,North,-999,0.0,6.0,73,0.00,,,0.00,21.00,VWS V14.01,2013-01-21 23:46:00,
2013-01-21 16:51:00,27.3,19.8,29.92,North,-999,0.0,0.0,73,0.00,,,0.00,16.00,VWS V14.01,2013-01-21 23:51:00,
2013-01-21 16:56:00,27.3,19.8,29.92,North,-999,0.0,0.0,73,0.00,,,0.00,12.00,VWS V14.01,2013-01-21 23:56:00,
2013-01-21 17:01:00,27.3,19.8,29.91,North,-999,0.0,0.0,73,0.00,,,0.00,9.00,VWS V14.01,2013-01-22 00:01:00,
2013-01-21 17:06:00,27.1,19.6,29.92,North,-999,0.0,0.0,73,0.00,,,0.00,7.00,VWS V14.01,2013-01-22 00:06:00,
2013-01-21 17:11:00,26.9,19.4,29.92,North,-999,0.0,0.0,73,0.00,,,0.00,5.00,VWS V14.01,2013-01-22 00:11:00,
2013-01-21 17:16:00,26.7,19.5,29.91,North,-999,0.0,0.0,74,0.00,,,0.00,0.00,VWS V14.01,2013-01-22 00:16:00,
2013-01-21 17:21:00,26.5,19.4,29.92,North,-999,0.0,0.0,74,0.00,,,0.00,0.00,VWS V14.01,2013-01-22 00:21:00,
2013-01-21 17:26:00,26.1,19.3,29.92,North,-999,0.0,0.0,75,0.00,,,0.00,0.00,VWS V14.01,2013-01-22 00:26:00,
2013-01-21 17:31:00,25.8,19.3,29.92,North,-999,0.0,0.0,76,0.00,,,0.00,0.00,VWS V14.01,2013-01-22 00:31:00,
2013-01-21 17:36:00,25.6,19.1,29.92,North,-999,0.0,0.0,76,0.00,,,0.00,0.00,VWS V14.01,2013-01-22 00:36:00,
2013-01-21 17:41:00,25.6,19.4,29.91,North,-999,0.0,0.0,77,0.00,,,0.00,0.00,VWS V14.01,2013-01-22 00:41:00,
2013-01-21 17:46:00,25.5,19.3,29.91,North,-999,0.0,0.0,77,0.00,,,0.00,0.00,VWS V14.01,2013-01-22 00:46:00,
2013-01-21 17:52:00,25.3,18.8,29.91,North,-999,0.0,0.0,76,0.00,,,0.00,0.00,VWS V14.01,2013-01-22 00:52:00,
2013-01-21 17:57:00,25.2,18.7,29.92,North,-999,0.0,0.0,76,0.00,,,0.00,0.00,VWS V14.01,2013-01-22 00:57:00,
2013-01-21 18:02:00,24.9,18.7,29.92,North,-999,0.0,0.0,77,0.00,,,0.00,0.00,VWS V14.01,2013-01-22 01:02:00,
2013-01-21 18:07:00,24.7,18.5,29.92,North,-999,0.0,0.0,77,0.00,,,0.00,0.00,VWS V14.01,2013-01-22 01:07:00,
2013-01-21 18:12:00,24.2,18.0,29.91,North,-999,0.0,0.0,77,0.00,,,0.00,0.00,VWS V14.01,2013-01-22 01:12:00,
2013-01-21 18:17:00,24.0,17.9,29.91,North,-999,0.0,0.0,77,0.00,,,0.00,0.00,VWS V14.01,2013-01-22 01:17:00,
2013-01-21 18:22:00,23.7,17.6,29.91,North,-999,0.0,0.0,77,0.00,,,0.00,0.00,VWS V14.01,2013-01-22 01:22:00,
2013-01-21 18:27:00,23.2,16.8,29.91,North,-999,0.0,0.0,76,0.00,,,0.00,0.00,VWS V14.01,2013-01-22 01:27:00,
2013-01-21 18:32:00,22.7,16.6,29.92,North,-999,0.0,0.0,77,0.00,,,0.00,0.00,VWS V14.01,2013-01-22 01:32:00,
2013-01-21 18:37:00,22.6,17.1,29.92,North,-999,0.0,0.0,79,0.00,,,0.00,0.00,VWS V14.01,2013-01-22 01:37:00,
2013-01-21 18:42:00,22.9,17.4,29.92,North,-999,0.0,0.0,79,0.00,,,0.00,0.00,VWS V14.01,2013-01-22 01:42:00,
2013-01-21 18:47:00,23.1,17.3,29.92,North,-999,0.0,0.0,78,0.00,,,0.00,0.00,VWS V14.01,2013-01-22 01:47:00,
2013-01-21 18:52:00,23.2,17.4,29.91,North,-999,0.0,0.0,78,0.00,,,0.00,0.00,VWS V14.01,2013-01-22 01:52:00,
2013-01-21 18:57:00,23.2,17.4,29.92,North,-999,0.0,0.0,78,0.00,,,0.00,0.00,VWS V14.01,2013-01-22 01:57:00,
2013-01-21 19:02:00,23.1,17.3,29.92,North,-999,0.0,0.0,78,0.00,,,0.00,0.00,VWS V14.01,2013-01-22 02:02:00,
2013-01-21 19:07:00,23.0,17.2,29.91,North,-999,0.0,0.0,78,0.00,,,0.00,0.00,VWS V14.01,2013-01-22 02:07:00,
2013-01-21 19:12:00,23.0,17.2,29.92,North,-999,0.0,0.0,78,0.00,,,0.00,0.00,VWS V14.01,2013-01-22 02:12:00,
2013-01-21 19:17:00,23.1,17.6,29.91,North,-999,0.0,0.0,79,0.00,,,0.00,0.00,VWS V14.01,2013-01-22 02:17:00,
2013-01-21 19:22:00,23.1,17.6,29.91,North,-999,0.0,0.0,79,0.00,,,0.00,0.00,VWS V14.01,2013-01-22 02:22:00,
2013-01-21 19:27:00,23.1,17.3,29.91,North,-999,0.0,0.0,78,0.00,,,0.00,0.00,VWS V14.01,2013-01-22 02:27:00,
2013-01-21 19:32:00,23.3,17.5,29.91,North,-999,0.0,0.0,78,0.00,,,0.00,0.00,VWS V14.01,2013-01-22 02:32:00,
2013-01-21 19:37:00,22.9,16.8,29.91,North,-999,0.0,0.0,77,0.00,,,0.00,0.00,VWS V14.01,2013-01-22 02:37:00,
2013-01-21 19:42:00,22.6,16.8,29.91,North,-999,0.0,0.0,78,0.00,,,0.00,0.00,VWS V14.01,2013-01-22 02:42:00,
2013-01-21 19:47:00,22.0,16.2,29.91,North,-999,0.0,0.0,78,0.00,,,0.00,0.00,VWS V14.01,2013-01-22 02:47:00,
2013-01-21 19:52:00,21.9,16.4,29.91,North,-999,0.0,0.0,79,0.00,,,0.00,0.00,VWS V14.01,2013-01-22 02:52:00,
2013-01-21 19:57:00,21.5,15.7,29.91,North,-999,0.0,0.0,78,0.00,,,0.00,0.00,VWS V14.01,2013-01-22 02:57:00,
2013-01-21 20:02:00,21.2,16.0,29.91,North,-999,0.0,0.0,80,0.00,,,0.00,0.00,VWS V14.01,2013-01-22 03:02:00,
2013-01-21 20:07:00,21.3,16.1,29.91,North,-999,0.0,11.0,80,0.00,,,0.00,0.00,VWS V14.01,2013-01-22 03:07:00,
2013-01-21 20:12:00,21.2,16.0,29.91,North,-999,0.0,6.0,80,0.00,,,0.00,0.00,VWS V14.01,2013-01-22 03:12:00,
2013-01-21 20:17:00,20.9,15.7,29.91,North,-999,0.0,6.0,80,0.00,,,0.00,0.00,VWS V14.01,2013-01-22 03:17:00,
2013-01-21 20:22:00,20.9,16.0,29.91,North,-999,0.0,0.0,81,0.00,,,0.00,0.00,VWS V14.01,2013-01-22 03:22:00,
2013-01-21 20:27:00,20.7,15.5,29.91,North,-999,0.0,0.0,80,0.00,,,0.00,0.00,VWS V14.01,2013-01-22 03:27:00,
2013-01-21 20:32:00,20.3,15.1,29.91,North,-999,5.0,5.0,80,0.00,,,0.00,0.00,VWS V14.01,2013-01-22 03:32:00,
2013-01-21 20:36:00,19.8,14.9,29.90,North,-999,2.0,6.0,81,0.00,,,0.00,0.00,VWS V14.01,2013-01-22 03:36:00,
2013-01-21 20:41:00,19.8,14.9,29.90,North,-999,0.0,2.0,81,0.00,,,0.00,0.00,VWS V14.01,2013-01-22 03:41:00,
2013-01-21 20:46:00,19.9,15.3,29.91,North,-999,0.0,3.0,82,0.00,,,0.00,0.00,VWS V14.01,2013-01-22 03:46:00,
2013-01-21 20:51:00,20.0,15.4,29.91,North,-999,0.0,0.0,82,0.00,,,0.00,0.00,VWS V14.01,2013-01-22 03:51:00,
2013-01-21 20:56:00,19.9,15.0,29.92,North,-999,0.0,0.0,81,0.00,,,0.00,0.00,VWS V14.01,2013-01-22 03:56:00,
2013-01-21 21:01:00,19.9,15.3,29.92,North,-999,0.0,0.0,82,0.00,,,0.00,0.00,VWS V14.01,2013-01-22 04:01:00,
2013-01-21 21:06:00,19.9,15.3,29.92,North,-999,0.0,0.0,82,0.00,,,0.00,0.00,VWS V14.01,2013-01-22 04:06:00,
2013-01-21 21:11:00,20.1,15.5,29.92,North,-999,0.0,0.0,82,0.00,,,0.00,0.00,VWS V14.01,2013-01-22 04:11:00,
2013-01-21 21:16:00,20.3,15.4,29.92,North,-999,0.0,0.0,81,0.00,,,0.00,0.00,VWS V14.01,2013-01-22 04:16:00,
2013-01-21 21:21:00,20.3,15.4,29.92,North,-999,0.0,0.0,81,0.00,,,0.00,0.00,VWS V14.01,2013-01-22 04:21:00,
2013-01-21 21:26:00,19.7,14.5,29.92,North,-999,0.0,4.0,80,0.00,,,0.00,0.00,VWS V14.01,2013-01-22 04:26:00,
2013-01-21 21:31:00,19.5,14.4,29.92,North,-999,0.0,4.0,80,0.00,,,0.00,0.00,VWS V14.01,2013-01-22 04:31:00,
2013-01-21 21:36:00,19.7,15.1,29.92,North,-999,0.0,4.0,82,0.00,,,0.00,0.00,VWS V14.01,2013-01-22 04:36:00,
2013-01-21 21:41:00,20.0,15.4,29.92,North,-999,0.0,0.0,82,0.00,,,0.00,0.00,VWS V14.01,2013-01-22 04:41:00,
2013-01-21 21:46:00,20.0,15.1,29.92,North,-999,0.0,0.0,81,0.00,,,0.00,0.00,VWS V14.01,2013-01-22 04:46:00,
2013-01-21 21:51:00,19.5,14.9,29.92,North,-999,0.0,0.0,82,0.00,,,0.00,0.00,VWS V14.01,2013-01-22 04:51:00,
2013-01-21 21:56:00,19.3,14.4,29.92,North,-999,0.0,0.0,81,0.00,,,0.00,0.00,VWS V14.01,2013-01-22 04:56:00,
2013-01-21 22:00:00,19.1,14.5,29.92,North,-999,0.0,0.0,82,0.00,,,0.00,0.00,VWS V14.01,2013-01-22 05:00:00,
2013-01-21 22:01:00,19.1,14.5,29.92,North,-999,0.0,0.0,82,0.00,,,0.00,0.00,VWS V14.01,2013-01-22 05:01:00,
2013-01-21 22:06:00,19.0,14.4,29.92,North,-999,0.0,0.0,82,0.00,,,0.00,0.00,VWS V14.01,2013-01-22 05:06:00,
2013-01-21 22:11:00,19.0,14.4,29.92,North,-999,0.0,0.0,82,0.00,,,0.00,0.00,VWS V14.01,2013-01-22 05:11:00,
2013-01-21 22:15:00,19.4,15.1,29.91,North,-999,0.0,0.0,83,0.00,,,0.00,0.00,VWS V14.01,2013-01-22 05:15:00,
2013-01-21 22:20:00,20.0,15.9,29.91,North,-999,0.0,0.0,84,0.00,,,0.00,0.00,VWS V14.01,2013-01-22 05:20:00,
2013-01-21 22:25:00,20.2,15.6,29.91,North,-999,0.0,0.0,82,0.00,,,0.00,0.00,VWS V14.01,2013-01-22 05:25:00,
2013-01-21 22:30:00,20.2,15.6,29.91,North,-999,3.0,4.0,82,0.00,,,0.00,0.00,VWS V14.01,2013-01-22 05:30:00,
2013-01-21 22:35:00,20.3,15.7,29.92,North,-999,3.0,4.0,82,0.00,,,0.00,0.00,VWS V14.01,2013-01-22 05:35:00,
2013-01-21 22:40:00,19.8,14.6,29.92,North,-999,0.0,0.0,80,0.00,,,0.00,0.00,VWS V14.01,2013-01-22 05:40:00,
2013-01-21 22:45:00,19.6,15.0,29.91,North,-999,0.0,0.0,82,0.00,,,0.00,0.00,VWS V14.01,2013-01-22 05:45:00,
2013-01-21 22:50:00,19.5,15.2,29.91,North,-999,0.0,0.0,83,0.00,,,0.00,0.00,VWS V14.01,2013-01-22 05:50:00,
2013-01-21 22:55:00,18.8,13.7,29.91,North,-999,0.0,0.0,80,0.00,,,0.00,0.00,VWS V14.01,2013-01-22 05:55:00,
2013-01-21 23:00:00,18.2,13.4,29.91,North,-999,0.0,0.0,81,0.00,,,0.00,0.00,VWS V14.01,2013-01-22 06:00:00,
2013-01-21 23:05:00,17.9,13.6,29.92,North,-999,0.0,0.0,83,0.00,,,0.00,0.00,VWS V14.01,2013-01-22 06:05:00,
2013-01-21 23:10:00,17.8,13.8,29.91,North,-999,0.0,0.0,84,0.00,,,0.00,0.00,VWS V14.01,2013-01-22 06:10:00,
2013-01-21 23:15:00,18.0,14.3,29.92,North,-999,0.0,0.0,85,0.00,,,0.00,0.00,VWS V14.01,2013-01-22 06:15:00,
2013-01-21 23:20:00,18.1,14.1,29.92,North,-999,0.0,0.0,84,0.00,,,0.00,0.00,VWS V14.01,2013-01-22 06:20:00,
2013-01-21 23:25:00,17.8,13.5,29.92,North,-999,0.0,0.0,83,0.00,,,0.00,0.00,VWS V14.01,2013-01-22 06:25:00,
2013-01-21 23:30:00,17.6,13.3,29.92,North,-999,5.0,5.0,83,0.00,,,0.00,0.00,VWS V14.01,2013-01-22 06:30:00,
2013-01-21 23:35:00,17.5,13.2,29.92,North,-999,0.0,6.0,83,0.00,,,0.00,0.00,VWS V14.01,2013-01-22 06:35:00,
2013-01-21 23:40:00,17.3,13.0,29.92,North,-999,0.0,0.0,83,0.00,,,0.00,0.00,VWS V14.01,2013-01-22 06:40:00,
2013-01-21 23:45:00,17.3,13.0,29.92,North,-999,0.0,0.0,83,0.00,,,0.00,0.00,VWS V14.01,2013-01-22 06:45:00,
2013-01-21 23:50:00,17.0,12.7,29.91,North,-999,0.0,0.0,83,0.00,,,0.00,0.00,VWS V14.01,2013-01-22 06:50:00,
2013-01-21 23:55:00,16.5,12.2,29.91,North,-999,0.0,0.0,83,0.00,,,0.00,0.00,VWS V14.01,2013-01-22 06:55:00,